sensor_id;sensor_type;location;lat;lon;timestamp;P1;durP1;ratioP1;P2;durP2;ratioP2
39958;SDS011;25639;53.634;9.880;2023-05-29T00:01:51;14.13;;;3.10;;
39958;SDS011;25639;53.634;9.880;2023-05-29T00:04:17;20.95;;;3.20;;
39958;SDS011;25639;53.634;9.880;2023-05-29T00:06:42;14.43;;;3.08;;
39958;SDS011;25639;53.634;9.880;2023-05-29T00:09:07;16.60;;;2.70;;
39958;SDS011;25639;53.634;9.880;2023-05-29T00:11:33;21.05;;;3.35;;
39958;SDS011;25639;53.634;9.880;2023-05-29T00:13:58;15.95;;;2.70;;
39958;SDS011;25639;53.634;9.880;2023-05-29T00:16:24;15.52;;;3.17;;
39958;SDS011;25639;53.634;9.880;2023-05-29T00:18:49;13.48;;;2.58;;
39958;SDS011;25639;53.634;9.880;2023-05-29T00:21:17;11.18;;;2.65;;
39958;SDS011;25639;53.634;9.880;2023-05-29T00:23:42;18.23;;;3.25;;
39958;SDS011;25639;53.634;9.880;2023-05-29T00:26:07;14.30;;;2.92;;
39958;SDS011;25639;53.634;9.880;2023-05-29T00:28:34;18.27;;;2.92;;
39958;SDS011;25639;53.634;9.880;2023-05-29T00:31:00;15.48;;;2.85;;
39958;SDS011;25639;53.634;9.880;2023-05-29T00:33:25;20.13;;;3.22;;
39958;SDS011;25639;53.634;9.880;2023-05-29T00:35:51;19.15;;;2.70;;
39958;SDS011;25639;53.634;9.880;2023-05-29T00:38:16;20.60;;;3.97;;
39958;SDS011;25639;53.634;9.880;2023-05-29T00:40:41;22.23;;;2.53;;
39958;SDS011;25639;53.634;9.880;2023-05-29T00:43:07;19.35;;;2.90;;
39958;SDS011;25639;53.634;9.880;2023-05-29T00:45:32;16.15;;;3.10;;
39958;SDS011;25639;53.634;9.880;2023-05-29T00:48:01;21.92;;;3.55;;
39958;SDS011;25639;53.634;9.880;2023-05-29T00:50:29;13.32;;;2.75;;
39958;SDS011;25639;53.634;9.880;2023-05-29T00:52:55;14.50;;;2.75;;
39958;SDS011;25639;53.634;9.880;2023-05-29T00:55:21;21.83;;;3.15;;
39958;SDS011;25639;53.634;9.880;2023-05-29T00:57:47;20.70;;;3.50;;
39958;SDS011;25639;53.634;9.880;2023-05-29T01:00:12;19.95;;;3.78;;
39958;SDS011;25639;53.634;9.880;2023-05-29T01:02:42;16.23;;;3.30;;
39958;SDS011;25639;53.634;9.880;2023-05-29T01:05:10;22.65;;;3.78;;
39958;SDS011;25639;53.634;9.880;2023-05-29T01:07:36;13.90;;;3.13;;
39958;SDS011;25639;53.634;9.880;2023-05-29T01:10:02;17.13;;;2.95;;
39958;SDS011;25639;53.634;9.880;2023-05-29T01:15:18;19.80;;;3.40;;
39958;SDS011;25639;53.634;9.880;2023-05-29T01:20:47;19.67;;;2.80;;
39958;SDS011;25639;53.634;9.880;2023-05-29T01:35:16;18.88;;;2.85;;
39958;SDS011;25639;53.634;9.880;2023-05-29T01:37:41;22.08;;;2.92;;
39958;SDS011;25639;53.634;9.880;2023-05-29T01:40:06;12.40;;;2.42;;
39958;SDS011;25639;53.634;9.880;2023-05-29T01:42:33;22.27;;;3.30;;
39958;SDS011;25639;53.634;9.880;2023-05-29T01:44:58;15.32;;;2.42;;
39958;SDS011;25639;53.634;9.880;2023-05-29T01:47:24;20.60;;;3.33;;
39958;SDS011;25639;53.634;9.880;2023-05-29T01:49:51;21.85;;;3.08;;
39958;SDS011;25639;53.634;9.880;2023-05-29T01:52:17;15.88;;;2.67;;
39958;SDS011;25639;53.634;9.880;2023-05-29T01:54:43;21.55;;;3.60;;
39958;SDS011;25639;53.634;9.880;2023-05-29T01:57:09;19.25;;;2.85;;
39958;SDS011;25639;53.634;9.880;2023-05-29T01:59:35;19.38;;;2.63;;
39958;SDS011;25639;53.634;9.880;2023-05-29T02:02:06;27.15;;;3.28;;
39958;SDS011;25639;53.634;9.880;2023-05-29T02:04:32;18.00;;;3.20;;
39958;SDS011;25639;53.634;9.880;2023-05-29T02:06:57;19.67;;;2.72;;
39958;SDS011;25639;53.634;9.880;2023-05-29T02:09:23;14.48;;;2.75;;
39958;SDS011;25639;53.634;9.880;2023-05-29T02:11:48;18.05;;;2.70;;
39958;SDS011;25639;53.634;9.880;2023-05-29T02:14:13;16.05;;;3.17;;
39958;SDS011;25639;53.634;9.880;2023-05-29T02:16:38;19.60;;;3.63;;
39958;SDS011;25639;53.634;9.880;2023-05-29T02:19:05;17.73;;;2.67;;
39958;SDS011;25639;53.634;9.880;2023-05-29T02:21:31;16.52;;;3.72;;
39958;SDS011;25639;53.634;9.880;2023-05-29T02:23:56;20.35;;;3.47;;
39958;SDS011;25639;53.634;9.880;2023-05-29T02:26:21;20.52;;;3.50;;
39958;SDS011;25639;53.634;9.880;2023-05-29T02:28:47;19.38;;;2.90;;
39958;SDS011;25639;53.634;9.880;2023-05-29T02:31:13;18.88;;;3.15;;
39958;SDS011;25639;53.634;9.880;2023-05-29T02:33:38;22.65;;;3.55;;
39958;SDS011;25639;53.634;9.880;2023-05-29T02:36:03;27.55;;;3.33;;
39958;SDS011;25639;53.634;9.880;2023-05-29T02:38:29;17.10;;;3.30;;
39958;SDS011;25639;53.634;9.880;2023-05-29T02:40:54;20.10;;;3.30;;
39958;SDS011;25639;53.634;9.880;2023-05-29T02:43:21;20.98;;;3.35;;
39958;SDS011;25639;53.634;9.880;2023-05-29T02:45:46;22.38;;;2.90;;
39958;SDS011;25639;53.634;9.880;2023-05-29T02:48:12;28.38;;;3.80;;
39958;SDS011;25639;53.634;9.880;2023-05-29T02:50:37;21.33;;;3.53;;
39958;SDS011;25639;53.634;9.880;2023-05-29T02:53:02;28.45;;;3.53;;
39958;SDS011;25639;53.634;9.880;2023-05-29T02:55:28;21.15;;;3.38;;
39958;SDS011;25639;53.634;9.880;2023-05-29T02:57:53;19.60;;;3.45;;
39958;SDS011;25639;53.634;9.880;2023-05-29T03:00:20;19.85;;;2.65;;
39958;SDS011;25639;53.634;9.880;2023-05-29T03:02:45;18.33;;;3.13;;
39958;SDS011;25639;53.634;9.880;2023-05-29T03:05:11;17.13;;;3.65;;
39958;SDS011;25639;53.634;9.880;2023-05-29T03:07:36;21.52;;;3.28;;
39958;SDS011;25639;53.634;9.880;2023-05-29T03:10:02;19.83;;;3.47;;
39958;SDS011;25639;53.634;9.880;2023-05-29T03:12:29;19.35;;;2.97;;
39958;SDS011;25639;53.634;9.880;2023-05-29T03:14:54;21.73;;;3.25;;
39958;SDS011;25639;53.634;9.880;2023-05-29T03:17:21;17.17;;;2.80;;
39958;SDS011;25639;53.634;9.880;2023-05-29T03:19:46;24.20;;;3.47;;
39958;SDS011;25639;53.634;9.880;2023-05-29T03:22:12;24.60;;;3.58;;
39958;SDS011;25639;53.634;9.880;2023-05-29T03:24:37;21.88;;;2.92;;
39958;SDS011;25639;53.634;9.880;2023-05-29T03:27:02;15.32;;;2.97;;
39958;SDS011;25639;53.634;9.880;2023-05-29T03:29:29;21.70;;;3.17;;
39958;SDS011;25639;53.634;9.880;2023-05-29T03:31:55;20.92;;;4.00;;
39958;SDS011;25639;53.634;9.880;2023-05-29T03:34:20;21.45;;;3.42;;
39958;SDS011;25639;53.634;9.880;2023-05-29T03:36:46;21.98;;;3.17;;
39958;SDS011;25639;53.634;9.880;2023-05-29T03:39:11;20.77;;;3.70;;
39958;SDS011;25639;53.634;9.880;2023-05-29T03:41:37;21.27;;;3.22;;
39958;SDS011;25639;53.634;9.880;2023-05-29T03:44:02;22.88;;;4.53;;
39958;SDS011;25639;53.634;9.880;2023-05-29T03:46:27;20.17;;;3.30;;
39958;SDS011;25639;53.634;9.880;2023-05-29T03:48:53;22.13;;;4.07;;
39958;SDS011;25639;53.634;9.880;2023-05-29T03:51:18;23.33;;;3.88;;
39958;SDS011;25639;53.634;9.880;2023-05-29T03:53:43;27.52;;;3.63;;
39958;SDS011;25639;53.634;9.880;2023-05-29T03:56:08;20.92;;;3.20;;
39958;SDS011;25639;53.634;9.880;2023-05-29T03:58:34;18.67;;;3.47;;
39958;SDS011;25639;53.634;9.880;2023-05-29T04:01:01;22.73;;;3.60;;
39958;SDS011;25639;53.634;9.880;2023-05-29T04:03:26;23.05;;;4.15;;
39958;SDS011;25639;53.634;9.880;2023-05-29T04:05:52;25.05;;;3.80;;
39958;SDS011;25639;53.634;9.880;2023-05-29T04:08:18;22.13;;;3.47;;
39958;SDS011;25639;53.634;9.880;2023-05-29T04:10:43;24.08;;;4.05;;
39958;SDS011;25639;53.634;9.880;2023-05-29T04:13:09;23.23;;;3.70;;
39958;SDS011;25639;53.634;9.880;2023-05-29T04:15:34;20.58;;;3.60;;
39958;SDS011;25639;53.634;9.880;2023-05-29T04:17:59;18.10;;;3.17;;
39958;SDS011;25639;53.634;9.880;2023-05-29T04:20:25;20.20;;;3.55;;
39958;SDS011;25639;53.634;9.880;2023-05-29T04:22:50;18.05;;;3.80;;
39958;SDS011;25639;53.634;9.880;2023-05-29T04:25:16;25.83;;;3.45;;
39958;SDS011;25639;53.634;9.880;2023-05-29T04:27:41;19.70;;;4.47;;
39958;SDS011;25639;53.634;9.880;2023-05-29T04:30:07;25.20;;;3.50;;
39958;SDS011;25639;53.634;9.880;2023-05-29T04:32:33;22.17;;;3.92;;
39958;SDS011;25639;53.634;9.880;2023-05-29T04:34:59;20.13;;;3.85;;
39958;SDS011;25639;53.634;9.880;2023-05-29T04:37:27;16.88;;;3.35;;
39958;SDS011;25639;53.634;9.880;2023-05-29T04:39:56;22.05;;;4.43;;
39958;SDS011;25639;53.634;9.880;2023-05-29T04:42:22;20.65;;;3.67;;
39958;SDS011;25639;53.634;9.880;2023-05-29T04:44:49;22.65;;;3.60;;
39958;SDS011;25639;53.634;9.880;2023-05-29T04:47:15;21.83;;;3.80;;
39958;SDS011;25639;53.634;9.880;2023-05-29T04:49:41;20.27;;;3.92;;
39958;SDS011;25639;53.634;9.880;2023-05-29T04:52:06;18.40;;;4.05;;
39958;SDS011;25639;53.634;9.880;2023-05-29T04:54:32;22.17;;;4.13;;
39958;SDS011;25639;53.634;9.880;2023-05-29T04:56:58;15.85;;;3.47;;
39958;SDS011;25639;53.634;9.880;2023-05-29T04:59:24;21.17;;;3.75;;
39958;SDS011;25639;53.634;9.880;2023-05-29T05:01:49;19.35;;;3.50;;
39958;SDS011;25639;53.634;9.880;2023-05-29T05:04:14;22.45;;;3.25;;
39958;SDS011;25639;53.634;9.880;2023-05-29T05:06:40;20.17;;;3.47;;
39958;SDS011;25639;53.634;9.880;2023-05-29T05:09:05;24.25;;;3.70;;
39958;SDS011;25639;53.634;9.880;2023-05-29T05:11:31;28.98;;;4.30;;
39958;SDS011;25639;53.634;9.880;2023-05-29T05:13:56;23.58;;;4.18;;
39958;SDS011;25639;53.634;9.880;2023-05-29T05:16:22;22.23;;;3.38;;
39958;SDS011;25639;53.634;9.880;2023-05-29T05:18:47;24.17;;;3.97;;
39958;SDS011;25639;53.634;9.880;2023-05-29T05:21:12;18.13;;;3.47;;
39958;SDS011;25639;53.634;9.880;2023-05-29T05:23:38;20.23;;;3.35;;
39958;SDS011;25639;53.634;9.880;2023-05-29T05:26:03;16.52;;;3.15;;
39958;SDS011;25639;53.634;9.880;2023-05-29T05:28:29;18.85;;;3.78;;
39958;SDS011;25639;53.634;9.880;2023-05-29T05:30:54;19.75;;;3.35;;
39958;SDS011;25639;53.634;9.880;2023-05-29T05:33:20;17.65;;;3.58;;
39958;SDS011;25639;53.634;9.880;2023-05-29T05:35:45;21.20;;;3.92;;
39958;SDS011;25639;53.634;9.880;2023-05-29T05:38:10;14.05;;;3.25;;
39958;SDS011;25639;53.634;9.880;2023-05-29T05:40:37;21.50;;;4.13;;
39958;SDS011;25639;53.634;9.880;2023-05-29T05:43:03;20.50;;;3.58;;
39958;SDS011;25639;53.634;9.880;2023-05-29T05:45:28;22.20;;;4.15;;
39958;SDS011;25639;53.634;9.880;2023-05-29T05:47:53;14.30;;;2.97;;
39958;SDS011;25639;53.634;9.880;2023-05-29T05:50:20;20.70;;;3.75;;
39958;SDS011;25639;53.634;9.880;2023-05-29T05:52:46;21.63;;;4.13;;
39958;SDS011;25639;53.634;9.880;2023-05-29T05:55:11;17.15;;;3.55;;
39958;SDS011;25639;53.634;9.880;2023-05-29T05:57:36;23.20;;;4.00;;
39958;SDS011;25639;53.634;9.880;2023-05-29T06:00:05;21.88;;;4.40;;
39958;SDS011;25639;53.634;9.880;2023-05-29T06:02:37;19.00;;;3.42;;
39958;SDS011;25639;53.634;9.880;2023-05-29T06:05:03;20.83;;;3.75;;
39958;SDS011;25639;53.634;9.880;2023-05-29T06:07:29;19.50;;;4.03;;
39958;SDS011;25639;53.634;9.880;2023-05-29T06:09:54;16.30;;;3.25;;
39958;SDS011;25639;53.634;9.880;2023-05-29T06:12:19;17.40;;;3.35;;
39958;SDS011;25639;53.634;9.880;2023-05-29T06:14:45;16.13;;;3.40;;
39958;SDS011;25639;53.634;9.880;2023-05-29T06:17:10;16.73;;;3.30;;
39958;SDS011;25639;53.634;9.880;2023-05-29T06:19:35;18.35;;;3.47;;
39958;SDS011;25639;53.634;9.880;2023-05-29T06:22:00;19.35;;;3.83;;
39958;SDS011;25639;53.634;9.880;2023-05-29T06:24:26;19.75;;;4.07;;
39958;SDS011;25639;53.634;9.880;2023-05-29T06:26:51;19.92;;;3.58;;
39958;SDS011;25639;53.634;9.880;2023-05-29T06:29:16;20.05;;;3.80;;
39958;SDS011;25639;53.634;9.880;2023-05-29T06:31:41;18.42;;;4.28;;
39958;SDS011;25639;53.634;9.880;2023-05-29T06:34:07;21.45;;;3.58;;
39958;SDS011;25639;53.634;9.880;2023-05-29T06:36:32;21.38;;;3.70;;
39958;SDS011;25639;53.634;9.880;2023-05-29T06:38:57;17.48;;;3.65;;
39958;SDS011;25639;53.634;9.880;2023-05-29T06:41:23;20.50;;;3.65;;
39958;SDS011;25639;53.634;9.880;2023-05-29T06:43:48;19.45;;;3.50;;
39958;SDS011;25639;53.634;9.880;2023-05-29T06:46:14;19.05;;;3.80;;
39958;SDS011;25639;53.634;9.880;2023-05-29T06:48:39;19.77;;;4.97;;
39958;SDS011;25639;53.634;9.880;2023-05-29T06:51:04;17.35;;;3.53;;
39958;SDS011;25639;53.634;9.880;2023-05-29T06:53:36;17.20;;;3.88;;
39958;SDS011;25639;53.634;9.880;2023-05-29T06:56:02;20.05;;;4.68;;
39958;SDS011;25639;53.634;9.880;2023-05-29T06:58:27;13.45;;;3.15;;
39958;SDS011;25639;53.634;9.880;2023-05-29T07:00:52;18.80;;;4.05;;
39958;SDS011;25639;53.634;9.880;2023-05-29T07:03:17;23.27;;;3.83;;
39958;SDS011;25639;53.634;9.880;2023-05-29T07:05:43;14.98;;;3.60;;
39958;SDS011;25639;53.634;9.880;2023-05-29T07:08:08;16.98;;;3.83;;
39958;SDS011;25639;53.634;9.880;2023-05-29T07:10:33;17.52;;;3.80;;
39958;SDS011;25639;53.634;9.880;2023-05-29T07:12:58;17.77;;;3.65;;
39958;SDS011;25639;53.634;9.880;2023-05-29T07:15:24;14.82;;;3.35;;
39958;SDS011;25639;53.634;9.880;2023-05-29T07:17:49;13.50;;;3.70;;
39958;SDS011;25639;53.634;9.880;2023-05-29T07:20:14;18.42;;;3.92;;
39958;SDS011;25639;53.634;9.880;2023-05-29T07:22:40;19.08;;;3.70;;
39958;SDS011;25639;53.634;9.880;2023-05-29T07:25:05;12.35;;;2.80;;
39958;SDS011;25639;53.634;9.880;2023-05-29T07:27:31;15.05;;;4.13;;
39958;SDS011;25639;53.634;9.880;2023-05-29T07:29:57;15.85;;;3.70;;
39958;SDS011;25639;53.634;9.880;2023-05-29T07:32:22;15.43;;;3.53;;
39958;SDS011;25639;53.634;9.880;2023-05-29T07:34:47;17.15;;;3.95;;
39958;SDS011;25639;53.634;9.880;2023-05-29T07:37:15;12.88;;;3.10;;
39958;SDS011;25639;53.634;9.880;2023-05-29T07:39:40;16.80;;;3.63;;
39958;SDS011;25639;53.634;9.880;2023-05-29T07:42:05;17.17;;;3.35;;
39958;SDS011;25639;53.634;9.880;2023-05-29T07:44:31;19.52;;;3.55;;
39958;SDS011;25639;53.634;9.880;2023-05-29T07:46:57;12.50;;;3.30;;
39958;SDS011;25639;53.634;9.880;2023-05-29T07:49:22;13.82;;;3.42;;
39958;SDS011;25639;53.634;9.880;2023-05-29T07:51:47;19.63;;;4.10;;
39958;SDS011;25639;53.634;9.880;2023-05-29T07:54:13;16.35;;;3.47;;
39958;SDS011;25639;53.634;9.880;2023-05-29T07:56:38;15.65;;;3.53;;
39958;SDS011;25639;53.634;9.880;2023-05-29T07:59:05;16.60;;;3.88;;
39958;SDS011;25639;53.634;9.880;2023-05-29T08:01:31;17.40;;;3.70;;
39958;SDS011;25639;53.634;9.880;2023-05-29T08:03:57;11.43;;;3.33;;
39958;SDS011;25639;53.634;9.880;2023-05-29T08:06:22;15.55;;;3.60;;
39958;SDS011;25639;53.634;9.880;2023-05-29T08:08:47;18.05;;;3.88;;
39958;SDS011;25639;53.634;9.880;2023-05-29T08:11:13;13.57;;;3.38;;
39958;SDS011;25639;53.634;9.880;2023-05-29T08:13:38;13.77;;;3.85;;
39958;SDS011;25639;53.634;9.880;2023-05-29T08:16:04;12.75;;;3.35;;
39958;SDS011;25639;53.634;9.880;2023-05-29T08:18:30;13.88;;;3.30;;
39958;SDS011;25639;53.634;9.880;2023-05-29T08:20:56;17.15;;;3.40;;
39958;SDS011;25639;53.634;9.880;2023-05-29T08:23:22;13.88;;;3.88;;
39958;SDS011;25639;53.634;9.880;2023-05-29T08:25:47;16.88;;;3.80;;
39958;SDS011;25639;53.634;9.880;2023-05-29T08:28:13;15.43;;;3.45;;
39958;SDS011;25639;53.634;9.880;2023-05-29T08:30:39;17.08;;;3.42;;
39958;SDS011;25639;53.634;9.880;2023-05-29T08:33:05;13.07;;;3.65;;
39958;SDS011;25639;53.634;9.880;2023-05-29T08:35:30;19.73;;;3.33;;
39958;SDS011;25639;53.634;9.880;2023-05-29T08:37:55;16.67;;;3.58;;
39958;SDS011;25639;53.634;9.880;2023-05-29T08:40:20;23.33;;;4.03;;
39958;SDS011;25639;53.634;9.880;2023-05-29T08:42:47;14.02;;;3.38;;
39958;SDS011;25639;53.634;9.880;2023-05-29T08:45:16;15.68;;;3.58;;
39958;SDS011;25639;53.634;9.880;2023-05-29T08:47:43;23.10;;;4.43;;
39958;SDS011;25639;53.634;9.880;2023-05-29T08:50:11;14.32;;;4.03;;
39958;SDS011;25639;53.634;9.880;2023-05-29T08:52:40;13.32;;;4.10;;
39958;SDS011;25639;53.634;9.880;2023-05-29T08:55:06;17.23;;;3.70;;
39958;SDS011;25639;53.634;9.880;2023-05-29T08:57:31;12.20;;;3.42;;
39958;SDS011;25639;53.634;9.880;2023-05-29T08:59:57;12.38;;;3.00;;
39958;SDS011;25639;53.634;9.880;2023-05-29T09:02:23;16.08;;;4.00;;
39958;SDS011;25639;53.634;9.880;2023-05-29T09:04:48;19.83;;;4.82;;
39958;SDS011;25639;53.634;9.880;2023-05-29T09:07:17;15.35;;;3.75;;
39958;SDS011;25639;53.634;9.880;2023-05-29T09:09:44;17.20;;;3.40;;
39958;SDS011;25639;53.634;9.880;2023-05-29T09:12:10;11.63;;;2.90;;
39958;SDS011;25639;53.634;9.880;2023-05-29T09:14:36;14.23;;;3.72;;
39958;SDS011;25639;53.634;9.880;2023-05-29T09:17:03;13.05;;;3.38;;
39958;SDS011;25639;53.634;9.880;2023-05-29T09:19:30;15.95;;;3.45;;
39958;SDS011;25639;53.634;9.880;2023-05-29T09:22:05;17.45;;;3.30;;
39958;SDS011;25639;53.634;9.880;2023-05-29T09:24:33;14.13;;;3.25;;
39958;SDS011;25639;53.634;9.880;2023-05-29T09:26:59;18.02;;;3.50;;
39958;SDS011;25639;53.634;9.880;2023-05-29T09:29:26;14.52;;;3.97;;
39958;SDS011;25639;53.634;9.880;2023-05-29T09:31:52;13.68;;;3.45;;
39958;SDS011;25639;53.634;9.880;2023-05-29T09:34:17;14.23;;;3.78;;
39958;SDS011;25639;53.634;9.880;2023-05-29T09:36:42;16.50;;;3.78;;
39958;SDS011;25639;53.634;9.880;2023-05-29T09:39:08;16.55;;;3.55;;
39958;SDS011;25639;53.634;9.880;2023-05-29T09:41:42;11.32;;;3.00;;
39958;SDS011;25639;53.634;9.880;2023-05-29T09:44:10;8.07;;;2.88;;
39958;SDS011;25639;53.634;9.880;2023-05-29T09:46:38;10.38;;;3.05;;
39958;SDS011;25639;53.634;9.880;2023-05-29T09:49:07;11.38;;;3.03;;
39958;SDS011;25639;53.634;9.880;2023-05-29T09:51:39;19.70;;;3.78;;
39958;SDS011;25639;53.634;9.880;2023-05-29T09:54:17;12.95;;;3.33;;
39958;SDS011;25639;53.634;9.880;2023-05-29T09:56:43;13.65;;;3.22;;
39958;SDS011;25639;53.634;9.880;2023-05-29T09:59:18;12.35;;;3.03;;
39958;SDS011;25639;53.634;9.880;2023-05-29T10:01:46;10.30;;;3.45;;
39958;SDS011;25639;53.634;9.880;2023-05-29T10:04:11;11.80;;;3.47;;
39958;SDS011;25639;53.634;9.880;2023-05-29T10:06:37;12.63;;;3.35;;
39958;SDS011;25639;53.634;9.880;2023-05-29T10:09:06;13.88;;;3.70;;
39958;SDS011;25639;53.634;9.880;2023-05-29T10:11:35;13.25;;;3.47;;
39958;SDS011;25639;53.634;9.880;2023-05-29T10:14:02;11.35;;;3.40;;
39958;SDS011;25639;53.634;9.880;2023-05-29T10:16:28;12.52;;;3.17;;
39958;SDS011;25639;53.634;9.880;2023-05-29T10:18:55;12.60;;;3.28;;
39958;SDS011;25639;53.634;9.880;2023-05-29T10:21:22;10.00;;;3.00;;
39958;SDS011;25639;53.634;9.880;2023-05-29T10:23:51;13.52;;;3.40;;
39958;SDS011;25639;53.634;9.880;2023-05-29T10:26:19;10.90;;;3.38;;
39958;SDS011;25639;53.634;9.880;2023-05-29T10:29:15;14.93;;;3.42;;
39958;SDS011;25639;53.634;9.880;2023-05-29T10:32:00;12.38;;;2.80;;
39958;SDS011;25639;53.634;9.880;2023-05-29T10:34:35;10.23;;;2.90;;
39958;SDS011;25639;53.634;9.880;2023-05-29T10:37:18;13.30;;;2.95;;
39958;SDS011;25639;53.634;9.880;2023-05-29T10:40:05;10.38;;;2.92;;
39958;SDS011;25639;53.634;9.880;2023-05-29T10:42:40;16.00;;;3.15;;
39958;SDS011;25639;53.634;9.880;2023-05-29T10:45:09;10.63;;;2.90;;
39958;SDS011;25639;53.634;9.880;2023-05-29T10:47:36;17.33;;;3.22;;
39958;SDS011;25639;53.634;9.880;2023-05-29T10:50:02;12.48;;;2.85;;
39958;SDS011;25639;53.634;9.880;2023-05-29T10:52:31;12.80;;;3.30;;
39958;SDS011;25639;53.634;9.880;2023-05-29T10:54:58;12.20;;;2.97;;
39958;SDS011;25639;53.634;9.880;2023-05-29T10:57:24;15.82;;;3.47;;
39958;SDS011;25639;53.634;9.880;2023-05-29T10:59:59;13.75;;;3.10;;
39958;SDS011;25639;53.634;9.880;2023-05-29T11:02:29;11.48;;;3.40;;
39958;SDS011;25639;53.634;9.880;2023-05-29T11:05:05;11.95;;;3.13;;
39958;SDS011;25639;53.634;9.880;2023-05-29T11:07:50;12.18;;;3.10;;
39958;SDS011;25639;53.634;9.880;2023-05-29T11:10:40;10.57;;;2.72;;
39958;SDS011;25639;53.634;9.880;2023-05-29T11:13:08;12.23;;;2.78;;
39958;SDS011;25639;53.634;9.880;2023-05-29T11:15:33;13.73;;;2.88;;
39958;SDS011;25639;53.634;9.880;2023-05-29T11:18:06;11.07;;;3.13;;
39958;SDS011;25639;53.634;9.880;2023-05-29T11:20:36;15.98;;;2.97;;
39958;SDS011;25639;53.634;9.880;2023-05-29T11:23:06;10.23;;;3.00;;
39958;SDS011;25639;53.634;9.880;2023-05-29T11:25:37;12.82;;;3.20;;
39958;SDS011;25639;53.634;9.880;2023-05-29T11:28:03;9.88;;;3.05;;
39958;SDS011;25639;53.634;9.880;2023-05-29T11:30:40;10.55;;;2.70;;
39958;SDS011;25639;53.634;9.880;2023-05-29T11:33:06;11.10;;;3.15;;
39958;SDS011;25639;53.634;9.880;2023-05-29T11:35:34;14.02;;;3.55;;
39958;SDS011;25639;53.634;9.880;2023-05-29T11:38:24;10.77;;;2.53;;
39958;SDS011;25639;53.634;9.880;2023-05-29T11:40:57;11.68;;;3.05;;
39958;SDS011;25639;53.634;9.880;2023-05-29T11:43:25;12.32;;;3.00;;
39958;SDS011;25639;53.634;9.880;2023-05-29T11:45:51;11.63;;;2.53;;
39958;SDS011;25639;53.634;9.880;2023-05-29T11:48:17;11.55;;;3.03;;
39958;SDS011;25639;53.634;9.880;2023-05-29T11:50:49;10.95;;;2.63;;
39958;SDS011;25639;53.634;9.880;2023-05-29T11:53:18;9.15;;;2.47;;
39958;SDS011;25639;53.634;9.880;2023-05-29T11:55:44;14.40;;;3.10;;
39958;SDS011;25639;53.634;9.880;2023-05-29T11:58:12;6.22;;;2.08;;
39958;SDS011;25639;53.634;9.880;2023-05-29T12:00:38;8.68;;;2.65;;
39958;SDS011;25639;53.634;9.880;2023-05-29T12:03:05;11.90;;;3.08;;
39958;SDS011;25639;53.634;9.880;2023-05-29T12:05:32;13.00;;;2.95;;
39958;SDS011;25639;53.634;9.880;2023-05-29T12:08:09;11.52;;;2.83;;
39958;SDS011;25639;53.634;9.880;2023-05-29T12:10:46;10.13;;;2.50;;
39958;SDS011;25639;53.634;9.880;2023-05-29T12:13:21;11.00;;;2.83;;
39958;SDS011;25639;53.634;9.880;2023-05-29T12:15:52;9.82;;;2.33;;
39958;SDS011;25639;53.634;9.880;2023-05-29T12:18:23;10.15;;;2.72;;
39958;SDS011;25639;53.634;9.880;2023-05-29T12:20:49;7.05;;;2.50;;
39958;SDS011;25639;53.634;9.880;2023-05-29T12:23:18;7.82;;;2.97;;
39958;SDS011;25639;53.634;9.880;2023-05-29T12:25:46;12.65;;;2.97;;
39958;SDS011;25639;53.634;9.880;2023-05-29T12:28:19;9.93;;;2.47;;
39958;SDS011;25639;53.634;9.880;2023-05-29T12:31:10;9.40;;;2.72;;
39958;SDS011;25639;53.634;9.880;2023-05-29T12:33:42;9.45;;;2.65;;
39958;SDS011;25639;53.634;9.880;2023-05-29T12:36:09;7.20;;;2.38;;
39958;SDS011;25639;53.634;9.880;2023-05-29T12:38:51;9.20;;;2.22;;
39958;SDS011;25639;53.634;9.880;2023-05-29T12:43:54;9.82;;;2.88;;
39958;SDS011;25639;53.634;9.880;2023-05-29T12:46:25;9.32;;;2.45;;
39958;SDS011;25639;53.634;9.880;2023-05-29T12:48:54;10.60;;;2.55;;
39958;SDS011;25639;53.634;9.880;2023-05-29T12:51:25;10.48;;;2.53;;
39958;SDS011;25639;53.634;9.880;2023-05-29T12:53:51;9.88;;;2.60;;
39958;SDS011;25639;53.634;9.880;2023-05-29T12:56:20;12.30;;;2.42;;
39958;SDS011;25639;53.634;9.880;2023-05-29T12:58:50;10.10;;;2.60;;
39958;SDS011;25639;53.634;9.880;2023-05-29T13:01:20;11.20;;;2.70;;
39958;SDS011;25639;53.634;9.880;2023-05-29T13:03:46;10.85;;;3.03;;
39958;SDS011;25639;53.634;9.880;2023-05-29T13:06:15;8.20;;;2.53;;
39958;SDS011;25639;53.634;9.880;2023-05-29T13:08:43;9.13;;;2.60;;
39958;SDS011;25639;53.634;9.880;2023-05-29T13:11:10;10.80;;;3.28;;
39958;SDS011;25639;53.634;9.880;2023-05-29T13:13:35;7.45;;;2.70;;
39958;SDS011;25639;53.634;9.880;2023-05-29T13:16:10;11.15;;;2.67;;
39958;SDS011;25639;53.634;9.880;2023-05-29T13:18:39;10.80;;;2.90;;
39958;SDS011;25639;53.634;9.880;2023-05-29T13:21:04;8.40;;;2.20;;
39958;SDS011;25639;53.634;9.880;2023-05-29T13:23:33;6.43;;;2.05;;
39958;SDS011;25639;53.634;9.880;2023-05-29T13:26:05;9.10;;;2.50;;
39958;SDS011;25639;53.634;9.880;2023-05-29T13:28:31;7.78;;;2.80;;
39958;SDS011;25639;53.634;9.880;2023-05-29T13:31:02;12.40;;;2.92;;
39958;SDS011;25639;53.634;9.880;2023-05-29T13:33:28;10.38;;;2.60;;
39958;SDS011;25639;53.634;9.880;2023-05-29T13:35:53;7.63;;;2.67;;
39958;SDS011;25639;53.634;9.880;2023-05-29T13:38:18;5.45;;;2.53;;
39958;SDS011;25639;53.634;9.880;2023-05-29T13:41:17;8.68;;;2.58;;
39958;SDS011;25639;53.634;9.880;2023-05-29T13:43:42;8.30;;;2.58;;
39958;SDS011;25639;53.634;9.880;2023-05-29T13:46:07;12.25;;;2.83;;
39958;SDS011;25639;53.634;9.880;2023-05-29T13:48:39;8.75;;;2.10;;
39958;SDS011;25639;53.634;9.880;2023-05-29T13:51:08;8.80;;;2.15;;
39958;SDS011;25639;53.634;9.880;2023-05-29T13:53:34;10.50;;;2.35;;
39958;SDS011;25639;53.634;9.880;2023-05-29T13:56:08;7.43;;;2.45;;
39958;SDS011;25639;53.634;9.880;2023-05-29T13:58:36;10.38;;;2.67;;
39958;SDS011;25639;53.634;9.880;2023-05-29T14:01:11;7.50;;;2.40;;
39958;SDS011;25639;53.634;9.880;2023-05-29T14:03:36;11.32;;;2.58;;
39958;SDS011;25639;53.634;9.880;2023-05-29T14:06:09;6.43;;;2.38;;
39958;SDS011;25639;53.634;9.880;2023-05-29T14:12:10;9.52;;;2.53;;
39958;SDS011;25639;53.634;9.880;2023-05-29T14:14:35;7.38;;;2.67;;
39958;SDS011;25639;53.634;9.880;2023-05-29T14:17:00;12.63;;;3.00;;
39958;SDS011;25639;53.634;9.880;2023-05-29T14:19:32;9.07;;;3.03;;
39958;SDS011;25639;53.634;9.880;2023-05-29T14:21:58;13.43;;;3.30;;
39958;SDS011;25639;53.634;9.880;2023-05-29T14:24:26;13.43;;;3.03;;
39958;SDS011;25639;53.634;9.880;2023-05-29T14:26:51;9.18;;;2.90;;
39958;SDS011;25639;53.634;9.880;2023-05-29T14:29:17;7.70;;;2.25;;
39958;SDS011;25639;53.634;9.880;2023-05-29T14:31:42;12.38;;;2.97;;
39958;SDS011;25639;53.634;9.880;2023-05-29T14:34:08;12.57;;;3.13;;
39958;SDS011;25639;53.634;9.880;2023-05-29T14:36:34;12.68;;;2.92;;
39958;SDS011;25639;53.634;9.880;2023-05-29T14:39:00;12.75;;;2.95;;
39958;SDS011;25639;53.634;9.880;2023-05-29T14:41:26;10.75;;;2.72;;
39958;SDS011;25639;53.634;9.880;2023-05-29T14:43:52;11.52;;;2.88;;
39958;SDS011;25639;53.634;9.880;2023-05-29T14:46:17;10.93;;;2.97;;
39958;SDS011;25639;53.634;9.880;2023-05-29T14:48:42;12.18;;;2.92;;
39958;SDS011;25639;53.634;9.880;2023-05-29T14:51:08;11.80;;;2.80;;
39958;SDS011;25639;53.634;9.880;2023-05-29T14:53:35;11.15;;;2.92;;
39958;SDS011;25639;53.634;9.880;2023-05-29T14:56:00;13.18;;;3.05;;
39958;SDS011;25639;53.634;9.880;2023-05-29T14:58:25;10.67;;;3.20;;
39958;SDS011;25639;53.634;9.880;2023-05-29T15:00:51;11.77;;;3.25;;